sensor_id;sensor_type;location;lat;lon;timestamp;P1;durP1;ratioP1;P2;durP2;ratioP2
76477;SDS011;65309;49.790;18.972;2023-04-01T00:00:42;2.15;;;1.15;;
76477;SDS011;65309;49.790;18.972;2023-04-01T00:05:50;5.00;;;2.08;;
76477;SDS011;65309;49.790;18.972;2023-04-01T00:10:53;5.25;;;2.13;;
76477;SDS011;65309;49.790;18.972;2023-04-01T00:15:56;6.80;;;2.17;;
76477;SDS011;65309;49.790;18.972;2023-04-01T00:21:00;2.67;;;1.17;;
76477;SDS011;65309;49.790;18.972;2023-04-01T00:26:03;5.72;;;1.80;;
76477;SDS011;65309;49.790;18.972;2023-04-01T00:31:07;1.73;;;1.30;;
76477;SDS011;65309;49.790;18.972;2023-04-01T00:36:11;3.80;;;1.50;;
76477;SDS011;65309;49.790;18.972;2023-04-01T00:41:15;5.20;;;2.28;;
76477;SDS011;65309;49.790;18.972;2023-04-01T00:46:18;3.78;;;1.85;;
76477;SDS011;65309;49.790;18.972;2023-04-01T00:51:22;3.03;;;1.70;;
76477;SDS011;65309;49.790;18.972;2023-04-01T00:56:31;4.70;;;1.85;;
76477;SDS011;65309;49.790;18.972;2023-04-01T01:01:37;3.65;;;1.58;;
76477;SDS011;65309;49.790;18.972;2023-04-01T01:06:42;9.18;;;3.80;;
76477;SDS011;65309;49.790;18.972;2023-04-01T01:11:54;5.93;;;1.83;;
76477;SDS011;65309;49.790;18.972;2023-04-01T01:17:06;6.22;;;2.40;;
76477;SDS011;65309;49.790;18.972;2023-04-01T01:22:21;26.27;;;3.83;;
76477;SDS011;65309;49.790;18.972;2023-04-01T01:27:36;6.82;;;2.33;;
76477;SDS011;65309;49.790;18.972;2023-04-01T01:32:47;5.30;;;1.67;;
76477;SDS011;65309;49.790;18.972;2023-04-01T01:38:02;2.97;;;1.60;;
76477;SDS011;65309;49.790;18.972;2023-04-01T01:43:09;3.95;;;1.42;;
76477;SDS011;65309;49.790;18.972;2023-04-01T01:48:13;3.35;;;1.30;;
76477;SDS011;65309;49.790;18.972;2023-04-01T01:53:19;2.40;;;1.67;;
76477;SDS011;65309;49.790;18.972;2023-04-01T01:58:22;2.53;;;1.40;;
76477;SDS011;65309;49.790;18.972;2023-04-01T02:03:28;2.30;;;1.00;;
76477;SDS011;65309;49.790;18.972;2023-04-01T02:08:35;4.78;;;1.35;;
76477;SDS011;65309;49.790;18.972;2023-04-01T02:13:43;3.90;;;1.05;;
76477;SDS011;65309;49.790;18.972;2023-04-01T02:18:50;4.30;;;1.65;;
76477;SDS011;65309;49.790;18.972;2023-04-01T02:23:57;2.25;;;1.30;;
76477;SDS011;65309;49.790;18.972;2023-04-01T02:29:02;2.17;;;1.20;;
76477;SDS011;65309;49.790;18.972;2023-04-01T02:34:07;2.47;;;1.23;;
76477;SDS011;65309;49.790;18.972;2023-04-01T02:39:10;2.63;;;1.65;;
76477;SDS011;65309;49.790;18.972;2023-04-01T02:44:13;2.92;;;1.40;;
76477;SDS011;65309;49.790;18.972;2023-04-01T02:49:16;1.98;;;1.13;;
76477;SDS011;65309;49.790;18.972;2023-04-01T02:54:19;6.70;;;2.25;;
76477;SDS011;65309;49.790;18.972;2023-04-01T02:59:21;1.90;;;1.40;;
76477;SDS011;65309;49.790;18.972;2023-04-01T03:04:23;4.43;;;1.88;;
76477;SDS011;65309;49.790;18.972;2023-04-01T03:09:27;2.42;;;1.33;;
76477;SDS011;65309;49.790;18.972;2023-04-01T03:14:30;4.25;;;1.30;;
76477;SDS011;65309;49.790;18.972;2023-04-01T03:19:32;1.90;;;1.40;;
76477;SDS011;65309;49.790;18.972;2023-04-01T03:24:35;0.98;;;0.68;;
76477;SDS011;65309;49.790;18.972;2023-04-01T03:29:37;2.00;;;0.95;;
76477;SDS011;65309;49.790;18.972;2023-04-01T03:34:39;1.67;;;1.10;;
76477;SDS011;65309;49.790;18.972;2023-04-01T03:39:42;1.48;;;1.35;;
76477;SDS011;65309;49.790;18.972;2023-04-01T03:44:45;2.05;;;1.40;;
76477;SDS011;65309;49.790;18.972;2023-04-01T03:49:47;1.83;;;1.30;;
76477;SDS011;65309;49.790;18.972;2023-04-01T03:54:50;1.13;;;0.88;;
76477;SDS011;65309;49.790;18.972;2023-04-01T03:59:52;4.78;;;1.38;;
76477;SDS011;65309;49.790;18.972;2023-04-01T04:04:55;4.38;;;1.23;;
76477;SDS011;65309;49.790;18.972;2023-04-01T04:09:58;4.28;;;1.70;;
76477;SDS011;65309;49.790;18.972;2023-04-01T04:15:00;2.72;;;1.40;;
76477;SDS011;65309;49.790;18.972;2023-04-01T04:20:02;3.08;;;1.10;;
76477;SDS011;65309;49.790;18.972;2023-04-01T04:25:07;1.00;;;0.90;;
76477;SDS011;65309;49.790;18.972;2023-04-01T04:30:10;2.83;;;1.27;;
76477;SDS011;65309;49.790;18.972;2023-04-01T04:35:12;4.32;;;2.40;;
76477;SDS011;65309;49.790;18.972;2023-04-01T04:40:16;2.50;;;1.13;;
76477;SDS011;65309;49.790;18.972;2023-04-01T04:45:18;1.67;;;1.33;;
76477;SDS011;65309;49.790;18.972;2023-04-01T04:50:20;1.38;;;0.98;;
76477;SDS011;65309;49.790;18.972;2023-04-01T04:55:23;2.35;;;1.80;;
76477;SDS011;65309;49.790;18.972;2023-04-01T05:00:25;2.00;;;1.50;;
76477;SDS011;65309;49.790;18.972;2023-04-01T05:05:27;3.53;;;1.42;;
76477;SDS011;65309;49.790;18.972;2023-04-01T05:10:31;2.92;;;1.70;;
76477;SDS011;65309;49.790;18.972;2023-04-01T05:15:33;1.67;;;0.90;;
76477;SDS011;65309;49.790;18.972;2023-04-01T05:20:35;3.22;;;1.83;;
76477;SDS011;65309;49.790;18.972;2023-04-01T05:25:39;4.97;;;2.47;;
76477;SDS011;65309;49.790;18.972;2023-04-01T05:30:41;4.72;;;2.05;;
76477;SDS011;65309;49.790;18.972;2023-04-01T05:35:44;2.88;;;1.70;;
76477;SDS011;65309;49.790;18.972;2023-04-01T05:40:47;1.60;;;1.17;;
76477;SDS011;65309;49.790;18.972;2023-04-01T05:45:49;2.08;;;1.48;;
76477;SDS011;65309;49.790;18.972;2023-04-01T05:50:51;2.60;;;1.77;;
76477;SDS011;65309;49.790;18.972;2023-04-01T05:55:55;3.35;;;1.92;;
76477;SDS011;65309;49.790;18.972;2023-04-01T06:01:01;3.47;;;1.83;;
76477;SDS011;65309;49.790;18.972;2023-04-01T06:06:13;2.72;;;1.73;;
76477;SDS011;65309;49.790;18.972;2023-04-01T06:11:22;3.40;;;1.80;;
76477;SDS011;65309;49.790;18.972;2023-04-01T06:16:32;3.17;;;1.40;;
76477;SDS011;65309;49.790;18.972;2023-04-01T06:22:01;3.15;;;1.75;;
76477;SDS011;65309;49.790;18.972;2023-04-01T06:27:34;4.85;;;1.95;;
76477;SDS011;65309;49.790;18.972;2023-04-01T06:32:57;2.60;;;1.92;;
76477;SDS011;65309;49.790;18.972;2023-04-01T06:38:15;3.25;;;2.00;;
76477;SDS011;65309;49.790;18.972;2023-04-01T06:43:30;2.28;;;1.73;;
76477;SDS011;65309;49.790;18.972;2023-04-01T06:48:47;3.17;;;1.30;;
76477;SDS011;65309;49.790;18.972;2023-04-01T06:54:01;4.40;;;1.65;;
76477;SDS011;65309;49.790;18.972;2023-04-01T06:59:09;3.88;;;2.13;;
76477;SDS011;65309;49.790;18.972;2023-04-01T07:04:16;1.05;;;0.82;;
76477;SDS011;65309;49.790;18.972;2023-04-01T07:09:23;1.95;;;1.50;;
76477;SDS011;65309;49.790;18.972;2023-04-01T07:14:30;2.10;;;1.58;;
76477;SDS011;65309;49.790;18.972;2023-04-01T07:19:39;5.15;;;1.92;;
76477;SDS011;65309;49.790;18.972;2023-04-01T07:29:49;4.03;;;2.03;;
76477;SDS011;65309;49.790;18.972;2023-04-01T07:34:58;2.45;;;1.88;;
76477;SDS011;65309;49.790;18.972;2023-04-01T07:40:20;4.13;;;2.03;;
76477;SDS011;65309;49.790;18.972;2023-04-01T07:45:31;1.67;;;1.58;;
76477;SDS011;65309;49.790;18.972;2023-04-01T07:50:39;3.95;;;1.92;;
76477;SDS011;65309;49.790;18.972;2023-04-01T07:55:51;4.13;;;2.25;;
76477;SDS011;65309;49.790;18.972;2023-04-01T08:01:04;3.47;;;1.90;;
76477;SDS011;65309;49.790;18.972;2023-04-01T08:06:14;3.40;;;2.08;;
76477;SDS011;65309;49.790;18.972;2023-04-01T08:11:24;2.85;;;1.40;;
76477;SDS011;65309;49.790;18.972;2023-04-01T08:21:47;1.83;;;1.30;;
76477;SDS011;65309;49.790;18.972;2023-04-01T08:26:53;2.75;;;1.80;;
76477;SDS011;65309;49.790;18.972;2023-04-01T08:32:00;4.07;;;2.08;;
76477;SDS011;65309;49.790;18.972;2023-04-01T08:48:01;2.60;;;1.38;;
76477;SDS011;65309;49.790;18.972;2023-04-01T08:53:20;2.40;;;1.40;;
76477;SDS011;65309;49.790;18.972;2023-04-01T08:58:48;4.03;;;2.90;;
76477;SDS011;65309;49.790;18.972;2023-04-01T09:04:23;4.75;;;2.88;;
76477;SDS011;65309;49.790;18.972;2023-04-01T09:09:54;3.80;;;2.28;;
76477;SDS011;65309;49.790;18.972;2023-04-01T09:15:18;4.50;;;2.15;;
76477;SDS011;65309;49.790;18.972;2023-04-01T09:20:39;2.67;;;2.15;;
76477;SDS011;65309;49.790;18.972;2023-04-01T09:25:53;3.78;;;2.38;;
76477;SDS011;65309;49.790;18.972;2023-04-01T09:36:43;3.78;;;2.30;;
76477;SDS011;65309;49.790;18.972;2023-04-01T09:43:01;2.70;;;2.25;;
76477;SDS011;65309;49.790;18.972;2023-04-01T09:48:40;5.53;;;2.53;;
76477;SDS011;65309;49.790;18.972;2023-04-01T09:53:57;3.63;;;2.58;;
76477;SDS011;65309;49.790;18.972;2023-04-01T09:59:24;2.08;;;1.73;;
76477;SDS011;65309;49.790;18.972;2023-04-01T10:04:55;5.20;;;2.47;;
76477;SDS011;65309;49.790;18.972;2023-04-01T10:21:31;4.30;;;3.13;;
76477;SDS011;65309;49.790;18.972;2023-04-01T10:32:25;5.47;;;4.00;;
76477;SDS011;65309;49.790;18.972;2023-04-01T10:37:57;5.50;;;3.28;;
76477;SDS011;65309;49.790;18.972;2023-04-01T10:43:34;10.25;;;6.63;;
76477;SDS011;65309;49.790;18.972;2023-04-01T10:54:39;5.53;;;3.38;;
76477;SDS011;65309;49.790;18.972;2023-04-01T11:11:34;4.07;;;2.30;;
76477;SDS011;65309;49.790;18.972;2023-04-01T11:22:37;3.58;;;1.60;;
76477;SDS011;65309;49.790;18.972;2023-04-01T11:33:31;1.90;;;1.52;;
76477;SDS011;65309;49.790;18.972;2023-04-01T11:38:46;3.25;;;2.08;;
76477;SDS011;65309;49.790;18.972;2023-04-01T11:44:03;2.67;;;2.10;;
76477;SDS011;65309;49.790;18.972;2023-04-01T11:49:23;4.03;;;2.90;;
76477;SDS011;65309;49.790;18.972;2023-04-01T11:54:41;2.83;;;2.50;;
76477;SDS011;65309;49.790;18.972;2023-04-01T12:05:41;3.40;;;1.90;;
76477;SDS011;65309;49.790;18.972;2023-04-01T12:10:52;2.90;;;2.20;;
76477;SDS011;65309;49.790;18.972;2023-04-01T12:16:07;4.35;;;2.28;;
76477;SDS011;65309;49.790;18.972;2023-04-01T12:21:22;9.35;;;4.95;;
76477;SDS011;65309;49.790;18.972;2023-04-01T12:26:42;2.72;;;1.65;;
76477;SDS011;65309;49.790;18.972;2023-04-01T12:31:56;2.63;;;1.75;;
76477;SDS011;65309;49.790;18.972;2023-04-01T12:37:06;4.13;;;2.63;;
76477;SDS011;65309;49.790;18.972;2023-04-01T12:42:17;10.02;;;5.40;;
76477;SDS011;65309;49.790;18.972;2023-04-01T12:47:47;7.95;;;4.90;;
76477;SDS011;65309;49.790;18.972;2023-04-01T12:53:01;4.85;;;3.60;;
76477;SDS011;65309;49.790;18.972;2023-04-01T13:04:06;3.85;;;2.65;;
76477;SDS011;65309;49.790;18.972;2023-04-01T13:09:32;6.78;;;3.28;;
76477;SDS011;65309;49.790;18.972;2023-04-01T13:14:52;3.50;;;2.45;;
76477;SDS011;65309;49.790;18.972;2023-04-01T13:20:16;2.33;;;1.83;;
76477;SDS011;65309;49.790;18.972;2023-04-01T13:25:31;2.78;;;2.00;;
76477;SDS011;65309;49.790;18.972;2023-04-01T13:30:43;1.42;;;1.20;;
76477;SDS011;65309;49.790;18.972;2023-04-01T13:35:52;2.88;;;1.98;;
76477;SDS011;65309;49.790;18.972;2023-04-01T13:41:09;2.53;;;1.90;;
76477;SDS011;65309;49.790;18.972;2023-04-01T13:52:00;5.22;;;2.15;;
76477;SDS011;65309;49.790;18.972;2023-04-01T13:57:23;5.63;;;2.47;;
76477;SDS011;65309;49.790;18.972;2023-04-01T14:08:32;6.30;;;4.03;;
76477;SDS011;65309;49.790;18.972;2023-04-01T14:18:47;4.57;;;3.10;;
76477;SDS011;65309;49.790;18.972;2023-04-01T14:24:03;9.32;;;4.65;;
76477;SDS011;65309;49.790;18.972;2023-04-01T14:29:27;7.80;;;3.80;;
76477;SDS011;65309;49.790;18.972;2023-04-01T14:34:40;13.13;;;5.05;;
76477;SDS011;65309;49.790;18.972;2023-04-01T14:40:16;9.40;;;5.35;;
76477;SDS011;65309;49.790;18.972;2023-04-01T14:45:30;26.70;;;13.48;;
76477;SDS011;65309;49.790;18.972;2023-04-01T14:50:44;14.05;;;8.00;;
76477;SDS011;65309;49.790;18.972;2023-04-01T14:55:50;11.80;;;7.18;;
76477;SDS011;65309;49.790;18.972;2023-04-01T15:00:58;4.82;;;2.92;;
76477;SDS011;65309;49.790;18.972;2023-04-01T15:06:27;3.40;;;2.42;;
76477;SDS011;65309;49.790;18.972;2023-04-01T15:11:46;5.82;;;3.00;;
76477;SDS011;65309;49.790;18.972;2023-04-01T15:17:01;3.78;;;2.42;;
76477;SDS011;65309;49.790;18.972;2023-04-01T15:22:24;5.60;;;3.00;;
76477;SDS011;65309;49.790;18.972;2023-04-01T15:27:37;3.80;;;2.25;;
76477;SDS011;65309;49.790;18.972;2023-04-01T15:32:54;3.97;;;2.30;;
76477;SDS011;65309;49.790;18.972;2023-04-01T15:38:11;3.30;;;2.65;;
76477;SDS011;65309;49.790;18.972;2023-04-01T15:43:27;3.72;;;2.10;;
76477;SDS011;65309;49.790;18.972;2023-04-01T15:48:46;4.40;;;2.97;;
76477;SDS011;65309;49.790;18.972;2023-04-01T15:54:02;4.95;;;2.67;;
76477;SDS011;65309;49.790;18.972;2023-04-01T15:59:32;5.70;;;2.53;;
76477;SDS011;65309;49.790;18.972;2023-04-01T16:04:50;3.28;;;2.38;;
76477;SDS011;65309;49.790;18.972;2023-04-01T16:10:00;3.92;;;2.45;;
76477;SDS011;65309;49.790;18.972;2023-04-01T16:15:21;4.65;;;2.17;;
76477;SDS011;65309;49.790;18.972;2023-04-01T16:20:34;3.38;;;2.20;;
76477;SDS011;65309;49.790;18.972;2023-04-01T16:25:47;3.83;;;2.20;;
76477;SDS011;65309;49.790;18.972;2023-04-01T16:30:57;4.68;;;2.35;;
76477;SDS011;65309;49.790;18.972;2023-04-01T16:36:05;7.43;;;3.55;;
76477;SDS011;65309;49.790;18.972;2023-04-01T16:41:14;7.70;;;5.38;;
76477;SDS011;65309;49.790;18.972;2023-04-01T16:46:39;9.70;;;5.82;;
76477;SDS011;65309;49.790;18.972;2023-04-01T16:51:46;7.10;;;4.55;;
76477;SDS011;65309;49.790;18.972;2023-04-01T16:56:50;14.02;;;5.45;;
76477;SDS011;65309;49.790;18.972;2023-04-01T17:02:58;9.85;;;3.58;;
76477;SDS011;65309;49.790;18.972;2023-04-01T17:09:12;6.05;;;2.85;;
76477;SDS011;65309;49.790;18.972;2023-04-01T17:15:27;4.55;;;2.35;;
76477;SDS011;65309;49.790;18.972;2023-04-01T17:21:49;3.80;;;3.22;;
76477;SDS011;65309;49.790;18.972;2023-04-01T17:27:57;7.65;;;3.75;;
76477;SDS011;65309;49.790;18.972;2023-04-01T17:34:09;4.80;;;3.03;;
76477;SDS011;65309;49.790;18.972;2023-04-01T17:40:36;7.97;;;3.53;;
76477;SDS011;65309;49.790;18.972;2023-04-01T17:46:48;5.35;;;3.15;;
76477;SDS011;65309;49.790;18.972;2023-04-01T17:52:57;4.15;;;2.58;;
76477;SDS011;65309;49.790;18.972;2023-04-01T17:59:17;2.97;;;1.80;;
76477;SDS011;65309;49.790;18.972;2023-04-01T18:05:30;2.65;;;2.10;;
76477;SDS011;65309;49.790;18.972;2023-04-01T18:11:39;4.43;;;2.10;;
76477;SDS011;65309;49.790;18.972;2023-04-01T18:17:59;2.58;;;1.67;;
76477;SDS011;65309;49.790;18.972;2023-04-01T18:24:11;5.45;;;4.03;;
76477;SDS011;65309;49.790;18.972;2023-04-01T18:30:20;6.63;;;3.58;;
76477;SDS011;65309;49.790;18.972;2023-04-01T18:36:26;5.38;;;3.50;;
76477;SDS011;65309;49.790;18.972;2023-04-01T18:42:38;2.97;;;2.33;;
76477;SDS011;65309;49.790;18.972;2023-04-01T18:48:49;2.88;;;2.22;;
76477;SDS011;65309;49.790;18.972;2023-04-01T19:01:20;5.43;;;2.97;;
76477;SDS011;65309;49.790;18.972;2023-04-01T19:07:40;8.88;;;4.07;;
76477;SDS011;65309;49.790;18.972;2023-04-01T19:13:46;4.18;;;2.42;;
76477;SDS011;65309;49.790;18.972;2023-04-01T19:19:55;6.10;;;3.30;;
76477;SDS011;65309;49.790;18.972;2023-04-01T19:26:04;3.70;;;3.05;;
76477;SDS011;65309;49.790;18.972;2023-04-01T19:32:16;6.65;;;4.15;;
76477;SDS011;65309;49.790;18.972;2023-04-01T19:38:28;4.13;;;3.65;;
76477;SDS011;65309;49.790;18.972;2023-04-01T19:44:41;5.88;;;3.45;;
76477;SDS011;65309;49.790;18.972;2023-04-01T19:50:49;5.45;;;3.65;;
76477;SDS011;65309;49.790;18.972;2023-04-01T19:57:00;6.30;;;3.85;;
76477;SDS011;65309;49.790;18.972;2023-04-01T20:03:15;5.40;;;3.78;;
76477;SDS011;65309;49.790;18.972;2023-04-01T20:09:28;4.90;;;3.92;;
76477;SDS011;65309;49.790;18.972;2023-04-01T20:15:37;5.47;;;4.25;;
76477;SDS011;65309;49.790;18.972;2023-04-01T20:21:48;7.95;;;4.90;;
76477;SDS011;65309;49.790;18.972;2023-04-01T20:28:13;7.85;;;4.45;;
76477;SDS011;65309;49.790;18.972;2023-04-01T20:34:36;7.35;;;4.10;;
76477;SDS011;65309;49.790;18.972;2023-04-01T20:40:46;8.05;;;5.07;;
76477;SDS011;65309;49.790;18.972;2023-04-01T20:47:00;13.70;;;7.13;;
76477;SDS011;65309;49.790;18.972;2023-04-01T20:53:16;8.50;;;5.15;;
76477;SDS011;65309;49.790;18.972;2023-04-01T20:59:33;7.00;;;4.90;;
76477;SDS011;65309;49.790;18.972;2023-04-01T21:12:23;8.65;;;4.95;;
76477;SDS011;65309;49.790;18.972;2023-04-01T21:18:46;18.13;;;7.93;;
76477;SDS011;65309;49.790;18.972;2023-04-01T21:25:04;12.13;;;6.30;;
76477;SDS011;65309;49.790;18.972;2023-04-01T21:31:25;40.60;;;15.10;;
76477;SDS011;65309;49.790;18.972;2023-04-01T21:37:42;14.68;;;6.60;;
76477;SDS011;65309;49.790;18.972;2023-04-01T21:44:07;7.40;;;4.65;;
76477;SDS011;65309;49.790;18.972;2023-04-01T21:50:47;7.05;;;4.05;;
76477;SDS011;65309;49.790;18.972;2023-04-01T22:04:04;4.38;;;3.13;;
76477;SDS011;65309;49.790;18.972;2023-04-01T22:10:14;5.55;;;3.92;;
76477;SDS011;65309;49.790;18.972;2023-04-01T22:16:24;5.45;;;3.47;;
76477;SDS011;65309;49.790;18.972;2023-04-01T22:22:34;7.18;;;3.50;;
76477;SDS011;65309;49.790;18.972;2023-04-01T22:28:42;5.88;;;3.65;;
76477;SDS011;65309;49.790;18.972;2023-04-01T22:34:56;8.32;;;4.25;;
76477;SDS011;65309;49.790;18.972;2023-04-01T22:41:08;7.97;;;4.03;;
76477;SDS011;65309;49.790;18.972;2023-04-01T22:47:24;9.63;;;5.03;;
76477;SDS011;65309;49.790;18.972;2023-04-01T22:53:38;10.13;;;4.82;;
76477;SDS011;65309;49.790;18.972;2023-04-01T22:59:46;13.93;;;7.32;;
76477;SDS011;65309;49.790;18.972;2023-04-01T23:05:51;13.68;;;7.47;;
76477;SDS011;65309;49.790;18.972;2023-04-01T23:11:54;11.95;;;6.20;;
76477;SDS011;65309;49.790;18.972;2023-04-01T23:18:08;7.30;;;4.80;;
76477;SDS011;65309;49.790;18.972;2023-04-01T23:24:14;6.55;;;4.10;;
76477;SDS011;65309;49.790;18.972;2023-04-01T23:36:42;4.68;;;3.47;;
76477;SDS011;65309;49.790;18.972;2023-04-01T23:42:43;7.80;;;3.67;;
76477;SDS011;65309;49.790;18.972;2023-04-01T23:48:45;5.53;;;3.40;;
76477;SDS011;65309;49.790;18.972;2023-04-01T23:54:52;6.78;;;4.18;;
